createdAt,value
2019-05-09T00:03:38.245Z,9.50
2019-05-09T00:07:43.908Z,9.47
2019-05-09T00:11:48.885Z,9.45
2019-05-09T00:15:54.282Z,9.46
2019-05-09T00:20:03.673Z,9.46
2019-05-09T00:24:08.502Z,9.47
2019-05-09T00:28:13.725Z,9.47
2019-05-09T00:32:28.994Z,9.45
2019-05-09T00:36:33.882Z,9.42
2019-05-09T00:40:52.355Z,9.36
2019-05-09T00:44:53.335Z,9.32
2019-05-09T00:48:59.903Z,9.26
2019-05-09T00:53:04.778Z,9.18
2019-05-09T00:57:13.631Z,9.12
2019-05-09T01:01:17.888Z,9.09
2019-05-09T01:05:23.942Z,9.05
2019-05-09T01:09:29.010Z,9.09
2019-05-09T01:13:34.329Z,9.06
2019-05-09T01:17:39.263Z,8.99
2019-05-09T01:21:44.163Z,8.93
2019-05-09T01:25:49.033Z,8.88
2019-05-09T01:29:53.919Z,8.82
2019-05-09T01:34:00.448Z,8.76
2019-05-09T01:38:05.407Z,8.75
2019-05-09T01:42:10.293Z,8.73
2019-05-09T01:46:15.177Z,8.73
2019-05-09T01:50:20.061Z,8.79
2019-05-09T01:54:26.396Z,8.84
2019-05-09T01:58:34.188Z,8.88
2019-05-09T02:02:40.460Z,8.97
2019-05-09T02:06:45.421Z,8.88
2019-05-09T02:10:50.548Z,8.85
2019-05-09T02:14:59.733Z,8.85
2019-05-09T02:19:06.259Z,8.85
2019-05-09T02:23:11.147Z,8.83
2019-05-09T02:27:16.027Z,8.81
2019-05-09T02:31:20.913Z,8.72
2019-05-09T02:35:31.472Z,8.64
2019-05-09T02:39:32.386Z,8.49
2019-05-09T02:43:38.972Z,8.31
2019-05-09T02:47:44.030Z,8.23
2019-05-09T02:51:49.021Z,8.11
2019-05-09T02:55:53.881Z,7.98
2019-05-09T03:00:08.715Z,7.93
2019-05-09T03:04:12.745Z,7.93
2019-05-09T03:08:19.233Z,7.96
2019-05-09T03:12:34.436Z,7.96
2019-05-09T03:16:30.797Z,7.93
2019-05-09T03:20:40.277Z,7.91
2019-05-09T03:24:48.334Z,7.88
2019-05-09T03:28:53.384Z,7.87
2019-05-09T03:32:59.717Z,7.89
2019-05-09T03:37:04.738Z,7.90
2019-05-09T03:41:09.629Z,7.90
2019-05-09T03:45:18.098Z,7.89
2019-05-09T03:49:24.518Z,7.93
2019-05-09T03:53:29.406Z,7.96
2019-05-09T03:57:37.357Z,8.01
2019-05-09T04:01:42.270Z,8.11
2019-05-09T04:05:58.303Z,8.26
2019-05-09T04:09:53.725Z,8.41
2019-05-09T04:14:00.250Z,8.51
2019-05-09T04:18:05.134Z,8.57
2019-05-09T04:22:10.018Z,8.64
2019-05-09T04:26:17.609Z,8.74
2019-05-09T04:30:22.711Z,8.83
2019-05-09T04:34:27.695Z,8.90
2019-05-09T04:38:32.561Z,9.05
2019-05-09T04:42:42.791Z,9.17
2019-05-09T04:46:44.037Z,9.25
2019-05-09T04:50:48.910Z,9.30
2019-05-09T04:54:54.066Z,9.34
2019-05-09T04:58:58.956Z,9.58
2019-05-09T05:03:03.852Z,10.00
2019-05-09T05:07:09.321Z,10.05
2019-05-09T05:11:14.208Z,10.93
2019-05-09T05:15:20.539Z,11.36
2019-05-09T05:19:28.566Z,11.26
2019-05-09T05:23:49.994Z,11.05
2019-05-09T05:27:54.883Z,11.01
2019-05-09T05:32:02.382Z,11.06
2019-05-09T05:36:15.142Z,10.92
2019-05-09T05:40:20.040Z,10.72
2019-05-09T05:44:24.932Z,10.55
2019-05-09T05:48:31.473Z,10.48
2019-05-09T05:52:37.554Z,10.44
2019-05-09T05:56:42.554Z,10.48
2019-05-09T06:00:48.132Z,10.49
2019-05-09T06:04:53.023Z,10.60
2019-05-09T06:08:58.122Z,10.76
2019-05-09T06:13:03.078Z,10.64
2019-05-09T06:17:09.057Z,10.58
2019-05-09T06:21:13.959Z,10.61
2019-05-09T06:25:21.059Z,10.59
2019-05-09T06:29:28.677Z,10.78
2019-05-09T06:33:32.793Z,10.89
2019-05-09T06:37:38.761Z,10.93
2019-05-09T06:41:43.665Z,10.90
2019-05-09T06:46:02.400Z,10.91
2019-05-09T06:50:11.633Z,10.91
2019-05-09T06:54:17.430Z,11.05
2019-05-09T06:58:32.711Z,11.49
2019-05-09T07:02:39.253Z,11.64
2019-05-09T07:06:48.111Z,11.69
2019-05-09T07:10:52.395Z,11.93
2019-05-09T07:14:58.418Z,12.27
2019-05-09T07:19:03.258Z,12.19
2019-05-09T07:23:09.079Z,12.02
2019-05-09T07:27:14.121Z,11.91
2019-05-09T07:31:24.167Z,12.14
2019-05-09T07:35:29.060Z,12.46
2019-05-09T07:39:33.943Z,12.76
2019-05-09T07:43:38.843Z,12.73
2019-05-09T07:47:43.739Z,12.40
2019-05-09T07:51:48.641Z,11.98
2019-05-09T07:55:53.533Z,11.70
2019-05-09T07:59:58.601Z,11.58
2019-05-09T08:04:03.558Z,11.57
2019-05-09T08:08:11.501Z,11.78
2019-05-09T08:12:17.939Z,12.06
2019-05-09T08:16:22.979Z,12.39
2019-05-09T08:20:28.062Z,12.70
2019-05-09T08:24:32.944Z,13.15
2019-05-09T08:28:38.887Z,13.80
2019-05-09T08:32:45.200Z,13.98
2019-05-09T08:36:50.104Z,13.86
2019-05-09T08:41:08.998Z,13.55
2019-05-09T08:45:27.392Z,13.61
2019-05-09T08:49:24.720Z,13.53
2019-05-09T08:53:29.611Z,13.31
2019-05-09T08:57:34.506Z,13.25
2019-05-09T09:02:04.694Z,13.39
2019-05-09T09:05:48.388Z,13.44
2019-05-09T09:09:52.642Z,13.44
2019-05-09T09:13:57.878Z,13.20
2019-05-09T09:18:02.873Z,12.96
2019-05-09T09:22:08.816Z,12.75
2019-05-09T09:26:14.100Z,12.66
2019-05-09T09:30:24.764Z,12.52
2019-05-09T09:34:27.748Z,12.46
2019-05-09T09:38:32.628Z,12.37
2019-05-09T09:42:39.615Z,12.32
2019-05-09T09:46:44.109Z,12.37
2019-05-09T09:50:51.615Z,12.37
2019-05-09T09:54:58.081Z,12.41
2019-05-09T09:59:21.594Z,12.39
2019-05-09T10:03:26.504Z,12.35
2019-05-09T10:07:31.380Z,12.28
2019-05-09T10:11:36.295Z,12.17
2019-05-09T10:15:48.663Z,12.12
2019-05-09T10:19:55.203Z,12.06
2019-05-09T10:24:00.083Z,12.05
2019-05-09T10:28:04.972Z,12.09
2019-05-09T10:32:11.577Z,12.12
2019-05-09T10:36:16.548Z,12.14
2019-05-09T10:40:22.729Z,12.31
2019-05-09T10:44:31.952Z,12.39
2019-05-09T10:48:38.622Z,12.52
2019-05-09T10:52:43.521Z,12.62
2019-05-09T10:56:49.490Z,12.67
2019-05-09T11:00:54.388Z,12.60
2019-05-09T11:04:59.287Z,12.58
2019-05-09T11:09:08.614Z,12.71
2019-05-09T11:13:13.217Z,13.04
2019-05-09T11:17:21.661Z,13.06
2019-05-09T11:21:24.704Z,12.83
2019-05-09T11:25:29.599Z,12.85
2019-05-09T11:29:34.501Z,12.71
2019-05-09T11:33:39.382Z,12.49
2019-05-09T11:37:44.283Z,12.55
2019-05-09T11:41:49.178Z,12.82
2019-05-09T11:45:54.076Z,12.74
2019-05-09T11:49:58.975Z,12.75
2019-05-09T11:54:03.855Z,12.67
2019-05-09T11:58:09.923Z,12.66
2019-05-09T12:02:14.817Z,12.66
2019-05-09T12:06:20.522Z,12.67
2019-05-09T12:10:25.597Z,12.73
2019-05-09T12:14:30.485Z,12.88
2019-05-09T12:18:37.674Z,13.17
2019-05-09T12:22:43.045Z,13.29
2019-05-09T12:26:48.349Z,13.23
2019-05-09T12:30:53.417Z,13.17
2019-05-09T12:34:58.310Z,13.15
2019-05-09T12:39:03.882Z,13.18
2019-05-09T12:43:09.221Z,13.07
2019-05-09T12:47:14.289Z,12.89
2019-05-09T12:51:19.118Z,12.85
2019-05-09T12:55:24.018Z,12.72
2019-05-09T12:59:28.910Z,12.59
2019-05-09T13:03:33.807Z,12.52
2019-05-09T13:07:42.221Z,12.61
2019-05-09T13:11:48.256Z,12.64
2019-05-09T13:16:03.603Z,12.71
2019-05-09T13:20:10.495Z,12.85
2019-05-09T13:24:19.262Z,12.90
2019-05-09T13:28:21.988Z,12.88
2019-05-09T13:32:28.025Z,12.86
2019-05-09T13:36:33.223Z,12.88
2019-05-09T13:40:38.124Z,12.94
2019-05-09T13:44:43.098Z,12.95
2019-05-09T13:49:05.827Z,12.86
2019-05-09T13:52:55.567Z,12.90
2019-05-09T13:57:01.552Z,12.89
2019-05-09T14:01:07.885Z,12.95
2019-05-09T14:05:12.856Z,13.10
2019-05-09T14:09:20.008Z,13.16
2019-05-09T14:13:24.354Z,13.21
2019-05-09T14:17:44.797Z,13.32
2019-05-09T14:21:35.846Z,13.33
2019-05-09T14:25:40.750Z,13.42
2019-05-09T14:29:45.673Z,13.23
2019-05-09T14:33:50.544Z,13.15
2019-05-09T14:37:55.434Z,13.14
2019-05-09T14:42:00.333Z,13.02
2019-05-09T14:46:05.229Z,12.85
2019-05-09T14:50:10.973Z,12.75
2019-05-09T14:54:15.869Z,12.71
2019-05-09T14:58:21.697Z,12.71
2019-05-09T15:02:26.587Z,12.74
2019-05-09T15:06:31.489Z,12.62
2019-05-09T15:10:38.425Z,12.46
2019-05-09T15:14:42.980Z,12.54
2019-05-09T15:18:48.649Z,12.89
2019-05-09T15:22:53.755Z,13.25
2019-05-09T15:26:58.653Z,13.54
2019-05-09T15:31:03.548Z,13.77
2019-05-09T15:35:09.281Z,14.00
2019-05-09T15:39:14.184Z,13.79
2019-05-09T15:43:19.076Z,13.76
2019-05-09T15:47:31.030Z,13.64
2019-05-09T15:51:35.926Z,13.51
2019-05-09T15:55:40.819Z,13.57
2019-05-09T15:59:47.861Z,13.61
2019-05-09T16:03:52.316Z,13.55
2019-05-09T16:07:58.555Z,13.66
2019-05-09T16:12:03.567Z,13.86
2019-05-09T16:16:09.022Z,13.79
2019-05-09T16:20:14.183Z,13.75
2019-05-09T16:24:19.160Z,13.62
2019-05-09T16:28:24.057Z,13.46
2019-05-09T16:32:28.947Z,13.51
2019-05-09T16:36:33.842Z,13.72
2019-05-09T16:40:38.883Z,13.88
2019-05-09T16:44:43.710Z,13.94
2019-05-09T16:48:48.616Z,13.83
2019-05-09T16:52:53.510Z,13.75
2019-05-09T16:57:00.009Z,13.59
2019-05-09T17:01:05.188Z,13.52
2019-05-09T17:05:10.336Z,13.56
2019-05-09T17:09:15.237Z,14.07
2019-05-09T17:13:20.125Z,14.07
2019-05-09T17:17:25.024Z,14.62
2019-05-09T17:21:40.810Z,14.62
2019-05-09T17:25:47.910Z,14.82
2019-05-09T17:29:52.295Z,15.05
2019-05-09T17:33:57.889Z,15.10
2019-05-09T17:38:03.016Z,15.08
2019-05-09T17:42:07.910Z,14.90
2019-05-09T17:46:12.818Z,14.66
2019-05-09T17:50:18.585Z,14.42
2019-05-09T17:54:23.626Z,14.34
2019-05-09T17:58:32.927Z,14.30
2019-05-09T18:02:35.115Z,14.34
2019-05-09T18:06:40.003Z,14.32
2019-05-09T18:10:44.896Z,14.16
2019-05-09T18:14:49.873Z,13.75
2019-05-09T18:18:58.527Z,13.56
2019-05-09T18:23:03.368Z,13.56
2019-05-09T18:27:08.998Z,13.45
2019-05-09T18:31:13.889Z,13.25
2019-05-09T18:35:20.589Z,13.04
2019-05-09T18:39:27.680Z,12.95
2019-05-09T18:43:32.068Z,12.78
2019-05-09T18:47:36.965Z,12.63
2019-05-09T18:51:41.871Z,12.52
2019-05-09T18:55:46.771Z,12.47
2019-05-09T18:59:51.679Z,12.43
2019-05-09T19:03:56.582Z,12.30
2019-05-09T19:08:01.476Z,12.16
2019-05-09T19:12:06.578Z,12.05
2019-05-09T19:16:27.920Z,11.92
2019-05-09T19:20:40.657Z,11.81
2019-05-09T19:24:45.542Z,11.60
2019-05-09T19:28:50.434Z,11.40
2019-05-09T19:32:55.336Z,11.32
2019-05-09T19:37:00.241Z,11.13
2019-05-09T19:41:05.134Z,10.91
2019-05-09T19:45:10.572Z,10.73
2019-05-09T19:49:15.533Z,10.61
2019-05-09T19:53:20.430Z,10.52
2019-05-09T19:57:25.333Z,10.44
2019-05-09T20:01:30.232Z,10.50
2019-05-09T20:05:35.127Z,10.55
2019-05-09T20:09:44.558Z,10.55
2019-05-09T20:13:57.097Z,10.61
2019-05-09T20:18:01.995Z,10.64
2019-05-09T20:22:06.891Z,10.65
2019-05-09T20:26:11.796Z,10.65
2019-05-09T20:30:17.884Z,11.29
2019-05-09T20:34:22.831Z,11.84
2019-05-09T20:38:27.875Z,12.30
2019-05-09T20:42:32.953Z,12.25
2019-05-09T20:46:38.037Z,12.17
2019-05-09T20:50:44.584Z,12.10
2019-05-09T20:54:49.895Z,12.03
2019-05-09T20:58:54.973Z,12.00
2019-05-09T21:03:00.046Z,11.91
2019-05-09T21:07:05.124Z,11.84
2019-05-09T21:11:10.217Z,11.78
2019-05-09T21:15:15.421Z,11.76
2019-05-09T21:19:20.516Z,11.75
2019-05-09T21:23:25.585Z,11.75
2019-05-09T21:27:30.664Z,11.72
2019-05-09T21:31:35.738Z,11.70
2019-05-09T21:35:41.708Z,11.60
2019-05-09T21:39:46.611Z,11.54
2019-05-09T21:43:51.508Z,11.49
2019-05-09T21:47:56.401Z,11.43
2019-05-09T21:52:01.290Z,11.40
2019-05-09T21:56:06.201Z,11.38
2019-05-09T22:00:16.956Z,11.35
2019-05-09T22:04:23.451Z,11.26
2019-05-09T22:08:28.414Z,11.14
2019-05-09T22:12:33.322Z,11.03
2019-05-09T22:16:38.207Z,10.92
2019-05-09T22:20:43.109Z,10.84
2019-05-09T22:24:48.006Z,10.73
2019-05-09T22:28:53.975Z,10.69
2019-05-09T22:32:58.865Z,10.63
2019-05-09T22:37:03.778Z,10.62
2019-05-09T22:41:08.663Z,10.64
2019-05-09T22:45:14.200Z,10.61
2019-05-09T22:49:19.097Z,10.59
2019-05-09T22:53:23.988Z,10.57
2019-05-09T22:57:28.876Z,10.57
2019-05-09T23:01:33.778Z,10.58
2019-05-09T23:05:38.669Z,10.65
2019-05-09T23:09:43.568Z,10.74
2019-05-09T23:13:54.481Z,10.77
2019-05-09T23:17:59.357Z,10.79
2019-05-09T23:22:04.826Z,10.73
2019-05-09T23:26:10.701Z,10.64
2019-05-09T23:30:15.832Z,10.56
2019-05-09T23:34:20.727Z,10.52
2019-05-09T23:38:25.608Z,10.45
2019-05-09T23:42:30.507Z,10.39
2019-05-09T23:46:35.412Z,10.37
2019-05-09T23:50:40.311Z,10.37
2019-05-09T23:55:03.436Z,10.36
2019-05-09T23:59:27.334Z,10.34
